createdAt,value
2018-06-21T00:01:33.965Z,99.90
2018-06-21T00:04:02.358Z,99.90
2018-06-21T00:06:30.785Z,99.90
2018-06-21T00:09:00.298Z,99.90
2018-06-21T00:11:29.771Z,99.90
2018-06-21T00:13:58.122Z,99.90
2018-06-21T00:16:26.516Z,99.90
2018-06-21T00:18:55.184Z,99.90
2018-06-21T00:21:23.581Z,99.90
2018-06-21T00:23:52.119Z,99.90
2018-06-21T00:26:21.258Z,99.90
2018-06-21T00:28:49.708Z,99.90
2018-06-21T00:31:18.119Z,99.90
2018-06-21T00:33:46.557Z,99.90
2018-06-21T00:36:15.779Z,99.90
2018-06-21T00:38:44.129Z,99.90
2018-06-21T00:41:13.273Z,99.90
2018-06-21T00:43:41.669Z,99.90
2018-06-21T00:46:10.353Z,99.90
2018-06-21T00:48:38.815Z,99.90
2018-06-21T00:51:07.332Z,99.90
2018-06-21T00:53:35.716Z,99.90
2018-06-21T00:56:12.651Z,99.90
2018-06-21T00:58:41.013Z,99.90
2018-06-21T01:01:09.418Z,99.90
2018-06-21T01:03:37.794Z,99.90
2018-06-21T01:06:06.235Z,99.90
2018-06-21T01:08:35.374Z,99.90
2018-06-21T01:11:03.757Z,99.90
2018-06-21T01:13:32.126Z,99.90
2018-06-21T01:16:01.325Z,99.90
2018-06-21T01:18:29.718Z,99.90
2018-06-21T01:20:58.082Z,99.90
2018-06-21T01:23:26.469Z,99.90
2018-06-21T01:25:54.818Z,99.90
2018-06-21T01:28:23.181Z,99.90
2018-06-21T01:30:52.305Z,99.90
2018-06-21T01:33:20.697Z,99.90
2018-06-21T01:35:49.282Z,99.90
2018-06-21T01:38:17.659Z,99.90
2018-06-21T01:40:46.142Z,99.90
2018-06-21T01:43:14.552Z,99.90
2018-06-21T01:45:42.954Z,99.90
2018-06-21T01:48:12.244Z,99.90
2018-06-21T01:50:40.615Z,99.90
2018-06-21T01:53:09.119Z,99.90
2018-06-21T01:55:38.242Z,99.90
2018-06-21T01:58:06.674Z,99.90
2018-06-21T02:00:35.036Z,99.90
2018-06-21T02:03:03.409Z,99.90
2018-06-21T02:05:31.795Z,99.90
2018-06-21T02:08:00.255Z,99.90
2018-06-21T02:10:29.346Z,99.90
2018-06-21T02:12:57.727Z,99.90
2018-06-21T02:15:26.249Z,99.90
2018-06-21T02:17:54.602Z,99.90
2018-06-21T02:20:22.984Z,99.90
2018-06-21T02:22:51.362Z,99.90
2018-06-21T02:25:19.775Z,99.90
2018-06-21T02:27:48.231Z,99.90
2018-06-21T02:30:16.752Z,99.90
2018-06-21T02:32:45.123Z,99.90
2018-06-21T02:35:13.507Z,99.90
2018-06-21T02:37:41.903Z,99.90
2018-06-21T02:40:11.043Z,99.90
2018-06-21T02:42:39.436Z,99.90
2018-06-21T02:45:07.816Z,99.90
2018-06-21T02:47:36.408Z,99.90
2018-06-21T02:50:04.776Z,99.90
2018-06-21T02:52:33.161Z,99.90
2018-06-21T02:55:01.607Z,99.90
2018-06-21T02:57:29.979Z,99.90
2018-06-21T02:59:58.485Z,99.90
2018-06-21T03:02:26.944Z,99.90
2018-06-21T03:04:55.300Z,99.90
2018-06-21T03:07:24.457Z,99.90
2018-06-21T03:09:52.833Z,99.90
2018-06-21T03:12:21.344Z,99.90
2018-06-21T03:14:49.799Z,99.90
2018-06-21T03:17:18.177Z,99.90
2018-06-21T03:19:46.548Z,99.90
2018-06-21T03:22:14.907Z,99.90
2018-06-21T03:24:43.279Z,99.90
2018-06-21T03:27:11.697Z,99.90
2018-06-21T03:29:40.089Z,99.90
2018-06-21T03:32:08.478Z,99.90
2018-06-21T03:34:36.903Z,99.90
2018-06-21T03:37:05.287Z,99.90
2018-06-21T03:39:33.702Z,99.90
2018-06-21T03:42:02.121Z,99.90
2018-06-21T03:44:31.266Z,99.90
2018-06-21T03:46:59.631Z,99.90
2018-06-21T03:49:28.100Z,99.90
2018-06-21T03:51:56.719Z,99.90
2018-06-21T03:54:25.071Z,99.90
2018-06-21T03:56:53.561Z,99.90
2018-06-21T03:59:21.913Z,99.90
2018-06-21T04:01:51.055Z,99.90
2018-06-21T04:04:19.830Z,99.90
2018-06-21T04:06:48.204Z,99.90
2018-06-21T04:09:16.551Z,99.90
2018-06-21T04:11:45.678Z,99.90
2018-06-21T04:14:14.031Z,99.90
2018-06-21T04:16:42.418Z,99.90
2018-06-21T04:19:10.787Z,99.90
2018-06-21T04:21:39.912Z,99.90
2018-06-21T04:24:08.274Z,99.90
2018-06-21T04:26:36.759Z,99.90
2018-06-21T04:29:05.129Z,99.90
2018-06-21T04:31:33.652Z,99.90
2018-06-21T04:34:02.736Z,99.90
2018-06-21T04:36:31.104Z,99.90
2018-06-21T04:38:59.571Z,99.90
2018-06-21T04:41:28.023Z,99.90
2018-06-21T04:43:56.404Z,99.90
2018-06-21T04:46:25.567Z,99.90
2018-06-21T04:48:54.055Z,99.90
2018-06-21T04:51:22.423Z,99.90
2018-06-21T04:53:50.815Z,99.90
2018-06-21T04:56:19.209Z,99.90
2018-06-21T04:58:47.576Z,99.90
2018-06-21T05:01:16.047Z,99.90
2018-06-21T05:03:44.634Z,99.90
2018-06-21T05:06:13.022Z,99.90
2018-06-21T05:08:41.394Z,99.90
2018-06-21T05:11:09.759Z,99.90
2018-06-21T05:13:38.167Z,99.90
2018-06-21T05:16:06.566Z,99.90
2018-06-21T05:18:34.945Z,99.90
2018-06-21T05:21:04.186Z,99.90
2018-06-21T05:23:32.560Z,99.90
2018-06-21T05:26:00.963Z,99.90
2018-06-21T05:28:29.313Z,99.90
2018-06-21T05:30:57.665Z,99.90
2018-06-21T05:33:26.988Z,99.90
2018-06-21T05:35:55.330Z,99.90
2018-06-21T05:38:23.897Z,99.90
2018-06-21T05:40:52.346Z,99.90
2018-06-21T05:43:20.689Z,99.90
2018-06-21T05:45:49.889Z,99.90
2018-06-21T05:48:18.373Z,99.90
2018-06-21T05:50:46.935Z,99.90
2018-06-21T05:53:15.317Z,99.90
2018-06-21T05:55:43.641Z,99.90
2018-06-21T05:58:11.986Z,99.90
2018-06-21T06:00:41.114Z,99.90
2018-06-21T06:03:09.485Z,99.90
2018-06-21T06:05:38.599Z,99.90
2018-06-21T06:08:07.031Z,99.90
2018-06-21T06:10:35.449Z,99.90
2018-06-21T06:13:03.789Z,99.90
2018-06-21T06:15:32.893Z,99.90
2018-06-21T06:18:02.069Z,99.90
2018-06-21T06:20:31.354Z,99.90
2018-06-21T06:22:59.690Z,99.90
2018-06-21T06:25:28.151Z,99.90
2018-06-21T06:27:57.377Z,99.90
2018-06-21T06:30:25.767Z,99.90
2018-06-21T06:32:54.952Z,99.90
2018-06-21T06:35:24.875Z,99.90
2018-06-21T06:37:53.308Z,99.90
2018-06-21T06:40:21.774Z,99.90
2018-06-21T06:42:50.110Z,99.90
2018-06-21T06:45:18.497Z,99.90
2018-06-21T06:47:47.009Z,99.90
2018-06-21T06:50:15.477Z,99.90
2018-06-21T06:52:43.868Z,99.90
2018-06-21T06:55:12.228Z,99.90
2018-06-21T06:57:40.594Z,99.90
2018-06-21T07:00:08.940Z,99.90
2018-06-21T07:02:38.049Z,99.90
2018-06-21T07:05:07.176Z,99.90
2018-06-21T07:07:35.524Z,99.90
2018-06-21T07:10:04.650Z,99.90
2018-06-21T07:12:33.004Z,99.90
2018-06-21T07:15:02.126Z,99.90
2018-06-21T07:17:30.475Z,99.90
2018-06-21T07:19:59.581Z,99.90
2018-06-21T07:22:27.949Z,99.90
2018-06-21T07:24:57.185Z,99.90
2018-06-21T07:27:25.557Z,99.90
2018-06-21T07:29:54.024Z,99.90
2018-06-21T07:32:22.426Z,99.90
2018-06-21T07:34:50.909Z,99.90
2018-06-21T07:37:19.755Z,99.90
2018-06-21T07:39:49.025Z,99.90
2018-06-21T07:42:17.483Z,99.90
2018-06-21T07:44:45.829Z,99.90
2018-06-21T07:47:14.850Z,99.90
2018-06-21T07:49:43.206Z,99.90
2018-06-21T07:52:11.538Z,99.90
2018-06-21T07:54:40.092Z,99.90
2018-06-21T07:57:08.435Z,99.90
2018-06-21T07:59:36.810Z,99.90
2018-06-21T08:02:05.901Z,99.90
2018-06-21T08:04:34.276Z,99.90
2018-06-21T08:07:02.739Z,99.90
2018-06-21T08:09:31.164Z,99.90
2018-06-21T08:12:00.253Z,99.90
2018-06-21T08:14:28.618Z,99.90
2018-06-21T08:16:57.066Z,99.90
2018-06-21T08:19:25.410Z,99.90
2018-06-21T08:21:53.848Z,99.90
2018-06-21T08:24:22.231Z,99.90
2018-06-21T08:26:51.029Z,99.90
2018-06-21T08:29:19.317Z,99.90
2018-06-21T08:31:47.662Z,99.90
2018-06-21T08:34:16.097Z,99.90
2018-06-21T08:36:44.428Z,99.90
2018-06-21T08:39:12.793Z,99.90
2018-06-21T08:41:41.236Z,99.90
2018-06-21T08:44:09.738Z,99.90
2018-06-21T08:46:38.082Z,99.90
2018-06-21T08:49:06.426Z,99.90
2018-06-21T08:51:34.820Z,99.90
2018-06-21T08:54:03.978Z,99.90
2018-06-21T08:56:33.321Z,99.90
2018-06-21T08:59:02.418Z,99.90
2018-06-21T09:01:31.527Z,99.90
2018-06-21T09:03:59.934Z,99.90
2018-06-21T09:06:28.295Z,99.90
2018-06-21T09:08:56.647Z,99.90
2018-06-21T09:11:25.158Z,99.90
2018-06-21T09:13:53.640Z,99.90
2018-06-21T09:16:21.991Z,99.90
2018-06-21T09:18:51.165Z,99.90
2018-06-21T09:21:19.478Z,99.90
2018-06-21T09:23:48.588Z,99.90
2018-06-21T09:26:17.882Z,99.90
2018-06-21T09:28:46.980Z,99.90
2018-06-21T09:31:15.328Z,99.90
2018-06-21T09:33:43.666Z,99.90
2018-06-21T09:36:12.034Z,99.90
2018-06-21T09:44:33.178Z,99.90
2018-06-21T09:47:07.216Z,99.90
2018-06-21T09:49:36.275Z,99.90
2018-06-21T09:52:04.641Z,99.90
2018-06-21T09:54:33.762Z,99.90
2018-06-21T09:57:02.098Z,99.90
2018-06-21T09:59:30.473Z,99.90
2018-06-21T10:01:58.800Z,99.90
2018-06-21T10:04:27.193Z,99.90
2018-06-21T10:09:28.951Z,99.90
2018-06-21T10:11:57.339Z,99.90
2018-06-21T10:14:25.711Z,99.90
2018-06-21T10:16:54.063Z,99.90
2018-06-21T10:19:23.180Z,99.90
2018-06-21T10:21:51.517Z,99.90
2018-06-21T10:24:19.878Z,99.90
2018-06-21T10:26:48.270Z,99.90
2018-06-21T10:29:16.807Z,99.90
2018-06-21T10:31:46.044Z,99.90
2018-06-21T10:34:14.386Z,99.90
2018-06-21T10:36:42.801Z,99.90
2018-06-21T10:39:11.155Z,99.90
2018-06-21T10:41:39.489Z,99.90
2018-06-21T10:44:07.914Z,99.90
2018-06-21T10:46:36.258Z,99.90
2018-06-21T10:49:05.405Z,99.90
2018-06-21T10:51:35.040Z,99.90
2018-06-21T10:54:03.429Z,99.90
2018-06-21T10:56:31.890Z,99.90
2018-06-21T10:59:00.229Z,99.90
2018-06-21T11:01:28.629Z,99.90
2018-06-21T11:03:56.969Z,99.90
2018-06-21T11:06:26.106Z,99.90
2018-06-21T11:08:54.480Z,99.90
2018-06-21T11:11:22.838Z,99.90
2018-06-21T11:13:51.229Z,99.90
2018-06-21T11:16:20.654Z,99.90
2018-06-21T11:18:49.005Z,99.90
2018-06-21T11:21:17.546Z,99.90
2018-06-21T11:23:45.891Z,99.90
2018-06-21T11:26:14.364Z,99.90
2018-06-21T11:28:42.733Z,99.90
2018-06-21T11:31:11.075Z,99.90
2018-06-21T11:33:40.377Z,99.90
2018-06-21T11:36:08.705Z,99.90
2018-06-21T11:38:37.700Z,99.90
2018-06-21T11:41:06.035Z,99.90
2018-06-21T11:43:35.825Z,99.90
2018-06-21T11:46:04.164Z,99.90
2018-06-21T11:48:32.593Z,99.90
2018-06-21T11:51:02.020Z,99.90
2018-06-21T11:53:30.395Z,99.90
2018-06-21T11:55:58.853Z,99.90
2018-06-21T11:58:27.244Z,99.90
2018-06-21T12:00:56.342Z,99.90
2018-06-21T12:03:25.502Z,99.90
2018-06-21T12:05:53.867Z,99.90
2018-06-21T12:08:22.283Z,99.90
2018-06-21T12:10:52.734Z,99.90
2018-06-21T12:13:21.082Z,99.90
2018-06-21T12:15:49.494Z,99.70
2018-06-21T12:18:25.295Z,98.30
2018-06-21T12:20:53.757Z,98.20
2018-06-21T12:23:23.263Z,95.50
2018-06-21T12:25:51.651Z,95.20
2018-06-21T12:28:20.122Z,94.40
2018-06-21T12:30:48.502Z,93.80
2018-06-21T12:33:16.915Z,92.50
2018-06-21T12:35:45.268Z,91.90
2018-06-21T12:38:13.604Z,91.90
2018-06-21T12:40:42.714Z,92.40
2018-06-21T12:43:11.896Z,93.10
2018-06-21T12:45:41.026Z,92.40
2018-06-21T12:48:09.532Z,92.40
2018-06-21T12:50:37.988Z,93.00
2018-06-21T12:53:06.333Z,93.30
2018-06-21T12:55:36.231Z,93.60
2018-06-21T12:58:04.728Z,93.60
2018-06-21T13:00:33.150Z,93.10
2018-06-21T13:03:01.522Z,92.60
2018-06-21T13:05:29.908Z,91.40
2018-06-21T13:07:58.395Z,90.90
2018-06-21T13:10:38.594Z,89.60
2018-06-21T13:13:11.914Z,86.40
2018-06-21T13:15:41.014Z,84.10
2018-06-21T13:18:09.381Z,84.20
2018-06-21T13:20:38.728Z,83.40
2018-06-21T13:23:07.045Z,83.40
2018-06-21T13:25:35.410Z,82.90
2018-06-21T13:28:03.740Z,85.80
2018-06-21T13:30:32.097Z,84.60
2018-06-21T13:33:01.278Z,85.00
2018-06-21T13:35:29.621Z,84.90
2018-06-21T13:37:57.971Z,83.70
2018-06-21T13:40:26.324Z,83.10
2018-06-21T13:42:54.743Z,80.30
2018-06-21T13:45:23.171Z,80.00
2018-06-21T13:47:51.505Z,78.10
2018-06-21T13:50:19.891Z,81.50
2018-06-21T13:52:48.279Z,81.90
2018-06-21T13:55:16.693Z,80.70
2018-06-21T13:57:45.046Z,82.30
2018-06-21T14:00:16.324Z,78.50
2018-06-21T14:02:44.768Z,79.30
2018-06-21T14:05:13.107Z,80.50
2018-06-21T14:07:41.502Z,79.10
2018-06-21T14:10:11.142Z,76.70
2018-06-21T14:12:39.495Z,75.80
2018-06-21T14:15:07.920Z,73.50
2018-06-21T14:17:37.038Z,74.90
2018-06-21T14:20:06.979Z,75.90
2018-06-21T14:22:35.364Z,75.90
2018-06-21T14:25:04.871Z,77.10
2018-06-21T14:27:33.268Z,76.20
2018-06-21T14:30:05.877Z,77.50
2018-06-21T14:32:34.242Z,76.60
2018-06-21T14:35:02.576Z,77.50
2018-06-21T14:37:30.986Z,76.80
2018-06-21T14:39:59.320Z,78.20
2018-06-21T14:42:28.440Z,78.50
2018-06-21T14:44:56.838Z,78.50
2018-06-21T14:47:27.062Z,78.40
2018-06-21T14:49:55.534Z,78.10
2018-06-21T14:52:24.014Z,78.70
2018-06-21T14:54:52.391Z,77.90
2018-06-21T14:57:20.874Z,77.70
2018-06-21T14:59:49.216Z,76.10
2018-06-21T15:02:18.377Z,80.20
2018-06-21T15:04:46.728Z,79.30
2018-06-21T15:07:15.092Z,78.30
2018-06-21T15:09:43.484Z,77.50
2018-06-21T15:12:11.880Z,77.30
2018-06-21T15:14:40.254Z,76.90
2018-06-21T15:17:08.622Z,76.60
2018-06-21T15:19:37.009Z,77.60
2018-06-21T15:22:05.396Z,75.30
2018-06-21T15:24:40.550Z,76.30
2018-06-21T15:27:08.913Z,76.40
2018-06-21T15:29:37.282Z,77.60
2018-06-21T15:32:05.650Z,78.80
2018-06-21T15:34:34.209Z,79.90
2018-06-21T15:37:02.515Z,81.40
2018-06-21T15:39:30.877Z,80.00
2018-06-21T15:42:00.578Z,81.80
2018-06-21T15:44:29.717Z,82.10
2018-06-21T15:46:58.084Z,82.10
2018-06-21T15:49:26.472Z,81.90
2018-06-21T15:51:57.867Z,82.40
2018-06-21T15:54:26.455Z,83.10
2018-06-21T15:56:54.799Z,84.90
2018-06-21T15:59:23.155Z,85.40
2018-06-21T16:01:51.858Z,86.00
2018-06-21T16:04:20.202Z,85.90
2018-06-21T16:06:48.556Z,84.40
2018-06-21T16:09:16.977Z,80.60
2018-06-21T16:11:45.317Z,80.80
2018-06-21T16:14:13.755Z,80.80
2018-06-21T16:16:42.187Z,81.80
2018-06-21T16:19:11.307Z,83.70
2018-06-21T16:21:40.610Z,82.90
2018-06-21T16:24:09.046Z,84.20
2018-06-21T16:26:37.493Z,83.70
2018-06-21T16:29:06.384Z,82.70
2018-06-21T16:31:38.435Z,84.20
2018-06-21T16:34:06.815Z,85.30
2018-06-21T16:36:35.160Z,87.20
2018-06-21T16:39:04.303Z,89.70
2018-06-21T16:41:33.437Z,89.70
2018-06-21T16:44:01.818Z,89.40
2018-06-21T16:46:30.974Z,86.80
2018-06-21T16:49:01.608Z,85.40
2018-06-21T16:51:30.092Z,83.40
2018-06-21T16:53:58.447Z,81.40
2018-06-21T16:56:26.955Z,81.00
2018-06-21T16:58:55.302Z,80.20
2018-06-21T17:01:23.636Z,78.80
2018-06-21T17:03:52.060Z,78.40
2018-06-21T17:06:20.394Z,78.70
2018-06-21T17:08:48.784Z,81.60
2018-06-21T17:11:17.102Z,84.90
2018-06-21T17:13:45.455Z,87.30
2018-06-21T17:16:14.699Z,89.20
2018-06-21T17:18:43.251Z,89.20
2018-06-21T17:21:12.409Z,79.60
2018-06-21T17:23:40.759Z,79.50
2018-06-21T17:26:09.135Z,79.10
2018-06-21T17:28:37.477Z,76.60
2018-06-21T17:31:06.719Z,74.00
2018-06-21T17:33:35.094Z,74.10
2018-06-21T17:36:03.675Z,75.50
2018-06-21T17:38:32.065Z,72.90
2018-06-21T17:41:00.433Z,72.40
2018-06-21T17:43:28.962Z,70.00
2018-06-21T17:45:57.338Z,70.30
2018-06-21T17:48:26.102Z,71.90
2018-06-21T17:50:54.496Z,72.20
2018-06-21T17:53:22.955Z,73.00
2018-06-21T17:55:51.438Z,73.10
2018-06-21T17:58:19.860Z,73.70
2018-06-21T18:00:48.226Z,74.50
2018-06-21T18:03:16.615Z,75.10
2018-06-21T18:05:45.010Z,74.70
2018-06-21T18:08:14.461Z,76.50
2018-06-21T18:10:42.835Z,78.40
2018-06-21T18:13:11.220Z,80.00
2018-06-21T18:15:39.597Z,83.50
2018-06-21T18:18:07.967Z,86.60
2018-06-21T18:20:36.350Z,88.90
2018-06-21T18:23:04.737Z,90.50
2018-06-21T18:25:33.155Z,91.20
2018-06-21T18:28:01.567Z,91.70
2018-06-21T18:30:29.943Z,90.00
2018-06-21T18:32:59.120Z,82.20
2018-06-21T18:35:28.425Z,77.60
2018-06-21T18:37:56.787Z,77.60
2018-06-21T18:40:25.121Z,77.00
2018-06-21T18:42:53.603Z,77.70
2018-06-21T18:45:21.929Z,79.40
2018-06-21T18:47:50.565Z,81.00
2018-06-21T18:50:19.641Z,82.60
2018-06-21T18:52:48.894Z,83.70
2018-06-21T18:55:17.219Z,83.70
2018-06-21T18:57:46.453Z,82.40
2018-06-21T19:00:14.824Z,82.30
2018-06-21T19:02:43.153Z,82.60
2018-06-21T19:05:11.802Z,82.00
2018-06-21T19:07:40.130Z,83.20
2018-06-21T19:10:14.870Z,86.60
2018-06-21T19:12:43.899Z,86.50
2018-06-21T19:15:12.295Z,88.40
2018-06-21T19:17:41.166Z,90.20
2018-06-21T19:20:09.533Z,91.00
2018-06-21T19:22:37.904Z,91.60
2018-06-21T19:25:07.031Z,92.20
2018-06-21T19:27:35.745Z,92.20
2018-06-21T19:30:04.183Z,92.60
2018-06-21T19:32:32.671Z,92.90
2018-06-21T19:35:01.062Z,93.30
2018-06-21T19:37:29.408Z,93.80
2018-06-21T19:39:57.807Z,94.10
2018-06-21T19:42:27.006Z,94.40
2018-06-21T19:44:55.899Z,94.70
2018-06-21T19:47:24.253Z,95.00
2018-06-21T19:49:53.428Z,95.10
2018-06-21T19:52:22.567Z,95.20
2018-06-21T19:54:50.916Z,95.20
2018-06-21T19:57:19.310Z,95.20
2018-06-21T19:59:47.663Z,95.30
2018-06-21T20:02:16.877Z,95.80
2018-06-21T20:04:45.982Z,96.10
2018-06-21T20:07:14.401Z,96.10
2018-06-21T20:09:43.456Z,96.40
2018-06-21T20:12:11.813Z,96.40
2018-06-21T20:14:40.258Z,96.50
2018-06-21T20:17:08.622Z,96.70
2018-06-21T20:19:36.971Z,96.60
2018-06-21T20:22:05.326Z,96.70
2018-06-21T20:24:34.478Z,97.20
2018-06-21T20:27:02.814Z,96.80
2018-06-21T20:29:31.218Z,96.90
2018-06-21T20:31:59.664Z,96.60
2018-06-21T20:34:28.038Z,96.80
2018-06-21T20:36:57.185Z,97.30
2018-06-21T20:39:25.676Z,96.80
2018-06-21T20:41:54.122Z,96.90
2018-06-21T20:44:23.262Z,97.10
2018-06-21T20:46:51.607Z,97.10
2018-06-21T20:49:19.959Z,97.40
2018-06-21T20:51:49.183Z,98.00
2018-06-21T20:54:17.534Z,98.00
2018-06-21T20:56:46.013Z,98.00
2018-06-21T20:59:14.320Z,98.70
2018-06-21T21:01:42.892Z,98.80
2018-06-21T21:04:12.902Z,99.70
2018-06-21T21:06:42.528Z,99.50
2018-06-21T21:09:11.658Z,99.60
2018-06-21T21:11:39.989Z,99.60
2018-06-21T21:14:09.406Z,99.90
2018-06-21T21:16:38.491Z,99.90
2018-06-21T21:19:06.835Z,99.90
2018-06-21T21:21:35.195Z,99.90
2018-06-21T21:24:03.551Z,99.90
2018-06-21T21:26:32.042Z,99.90
2018-06-21T21:29:00.396Z,99.90
2018-06-21T21:31:28.766Z,99.90
2018-06-21T21:33:57.961Z,99.90
2018-06-21T21:36:26.284Z,99.90
2018-06-21T21:38:54.645Z,99.90
2018-06-21T21:41:23.157Z,99.90
2018-06-21T21:43:51.511Z,99.90
2018-06-21T21:46:19.856Z,99.90
2018-06-21T21:48:48.229Z,99.90
2018-06-21T21:51:16.556Z,99.90
2018-06-21T21:53:44.924Z,99.90
2018-06-21T21:56:13.330Z,99.90
2018-06-21T21:58:41.725Z,99.90
2018-06-21T22:01:10.086Z,99.90
2018-06-21T22:03:38.482Z,99.90
2018-06-21T22:06:06.882Z,99.90
2018-06-21T22:08:35.418Z,99.90
2018-06-21T22:11:03.762Z,99.90
2018-06-21T22:13:32.991Z,99.90
2018-06-21T22:16:01.370Z,99.90
2018-06-21T22:18:29.717Z,99.90
2018-06-21T22:20:58.060Z,99.90
2018-06-21T22:23:26.486Z,99.90
2018-06-21T22:25:55.571Z,99.90
2018-06-21T22:28:24.679Z,99.90
2018-06-21T22:30:53.011Z,99.90
2018-06-21T22:33:21.366Z,99.90
2018-06-21T22:35:49.746Z,99.90
2018-06-21T22:38:19.493Z,99.90
2018-06-21T22:40:47.821Z,99.90
2018-06-21T22:43:16.179Z,99.90
2018-06-21T22:45:44.531Z,99.90
2018-06-21T22:48:12.870Z,99.90
2018-06-21T22:50:41.322Z,99.90
2018-06-21T22:53:09.832Z,99.90
2018-06-21T22:55:38.227Z,99.90
2018-06-21T22:58:06.593Z,99.90
2018-06-21T23:00:35.134Z,99.90
2018-06-21T23:03:04.339Z,99.90
2018-06-21T23:05:33.522Z,99.90
2018-06-21T23:08:01.846Z,99.90
2018-06-21T23:10:30.323Z,99.90
2018-06-21T23:12:58.687Z,99.90
2018-06-21T23:15:27.145Z,99.90
2018-06-21T23:17:55.483Z,99.90
2018-06-21T23:20:23.830Z,99.90
2018-06-21T23:22:52.176Z,99.90
2018-06-21T23:25:21.375Z,99.90
2018-06-21T23:27:49.789Z,99.90
2018-06-21T23:30:18.144Z,99.90
2018-06-21T23:32:47.253Z,99.90
2018-06-21T23:35:15.638Z,99.90
2018-06-21T23:37:44.014Z,99.90
2018-06-21T23:40:12.349Z,99.90
2018-06-21T23:42:40.701Z,99.90
2018-06-21T23:45:09.050Z,99.90
2018-06-21T23:47:37.382Z,99.90
2018-06-21T23:50:05.796Z,99.90
2018-06-21T23:52:34.934Z,99.90
2018-06-21T23:55:03.283Z,99.90
2018-06-21T23:57:31.636Z,99.90
